createdAt,value
2018-03-27T00:01:23.375Z,6.64
2018-03-27T00:03:50.769Z,6.72
2018-03-27T00:06:18.193Z,7.04
2018-03-27T00:08:46.238Z,7.04
2018-03-27T00:11:13.755Z,7.07
2018-03-27T00:13:41.006Z,7.02
2018-03-27T00:16:08.373Z,6.87
2018-03-27T00:18:35.777Z,7.00
2018-03-27T00:21:03.233Z,6.87
2018-03-27T00:23:30.638Z,6.55
2018-03-27T00:25:57.940Z,6.55
2018-03-27T00:28:43.090Z,6.64
2018-03-27T00:31:34.398Z,6.69
2018-03-27T00:34:25.627Z,6.66
2018-03-27T00:37:16.704Z,6.59
2018-03-27T00:40:09.718Z,6.54
2018-03-27T00:42:56.768Z,6.46
2018-03-27T00:45:24.039Z,6.41
2018-03-27T00:47:51.069Z,6.52
2018-03-27T00:50:18.910Z,6.59
2018-03-27T00:52:46.282Z,6.76
2018-03-27T00:55:13.670Z,6.68
2018-03-27T00:57:40.930Z,6.95
2018-03-27T01:00:08.614Z,6.76
2018-03-27T01:02:36.050Z,6.71
2018-03-27T01:05:09.228Z,6.65
2018-03-27T01:07:36.583Z,6.63
2018-03-27T01:10:03.768Z,6.68
2018-03-27T01:12:31.021Z,6.41
2018-03-27T01:14:58.429Z,6.30
2018-03-27T01:17:25.671Z,6.19
2018-03-27T01:19:56.225Z,6.19
2018-03-27T01:22:24.008Z,6.26
2018-03-27T01:24:51.635Z,6.44
2018-03-27T01:27:19.022Z,6.45
2018-03-27T01:29:47.530Z,6.51
2018-03-27T01:32:14.949Z,6.40
2018-03-27T01:34:42.181Z,6.51
2018-03-27T01:37:09.344Z,6.62
2018-03-27T01:39:40.050Z,6.89
2018-03-27T01:42:07.980Z,6.87
2018-03-27T01:44:35.113Z,6.69
2018-03-27T01:47:02.434Z,6.46
2018-03-27T01:49:30.000Z,6.50
2018-03-27T01:51:57.373Z,6.58
2018-03-27T01:54:24.742Z,6.49
2018-03-27T01:56:51.964Z,6.42
2018-03-27T01:59:19.258Z,6.60
2018-03-27T02:01:47.540Z,6.31
2018-03-27T02:04:14.862Z,6.29
2018-03-27T02:06:42.677Z,6.36
2018-03-27T02:09:10.772Z,6.39
2018-03-27T02:11:44.108Z,6.26
2018-03-27T02:14:17.392Z,6.14
2018-03-27T02:16:50.770Z,6.27
2018-03-27T02:19:24.208Z,6.22
2018-03-27T02:21:51.404Z,6.19
2018-03-27T02:24:19.676Z,6.29
2018-03-27T02:26:47.022Z,6.26
2018-03-27T02:29:18.641Z,6.21
2018-03-27T02:31:45.863Z,6.28
2018-03-27T02:34:13.301Z,6.17
2018-03-27T02:36:40.725Z,6.12
2018-03-27T02:39:09.576Z,6.44
2018-03-27T02:41:36.765Z,6.53
2018-03-27T02:44:04.035Z,6.39
2018-03-27T02:46:31.203Z,6.26
2018-03-27T02:49:01.805Z,6.38
2018-03-27T02:51:29.222Z,6.18
2018-03-27T02:53:56.694Z,6.43
2018-03-27T02:56:23.988Z,6.47
2018-03-27T02:58:51.797Z,6.31
2018-03-27T03:01:19.076Z,6.45
2018-03-27T03:03:46.455Z,6.21
2018-03-27T03:06:13.834Z,6.10
2018-03-27T03:08:45.386Z,6.25
2018-03-27T03:11:13.480Z,6.23
2018-03-27T03:13:40.766Z,6.13
2018-03-27T03:16:09.057Z,6.10
2018-03-27T03:18:37.116Z,5.97
2018-03-27T03:21:04.441Z,6.06
2018-03-27T03:23:32.039Z,5.96
2018-03-27T03:25:59.626Z,6.20
2018-03-27T03:28:31.282Z,6.15
2018-03-27T03:30:58.857Z,5.96
2018-03-27T03:33:26.185Z,5.96
2018-03-27T03:35:53.644Z,6.16
2018-03-27T03:38:27.109Z,6.24
2018-03-27T03:40:55.194Z,6.18
2018-03-27T03:43:22.456Z,6.32
2018-03-27T03:45:50.692Z,6.24
2018-03-27T03:48:18.134Z,6.13
2018-03-27T03:50:45.392Z,6.17
2018-03-27T03:53:12.934Z,6.00
2018-03-27T03:55:40.782Z,5.89
2018-03-27T03:58:08.103Z,5.92
2018-03-27T04:00:35.681Z,5.92
2018-03-27T04:03:03.120Z,5.85
2018-03-27T04:05:30.567Z,5.84
2018-03-27T04:07:57.922Z,5.93
2018-03-27T04:10:25.084Z,6.05
2018-03-27T04:12:52.390Z,5.95
2018-03-27T04:15:19.722Z,6.00
2018-03-27T04:17:47.009Z,5.91
2018-03-27T04:20:14.247Z,5.88
2018-03-27T04:22:41.717Z,5.96
2018-03-27T04:25:09.058Z,5.91
2018-03-27T04:27:36.342Z,5.94
2018-03-27T04:30:06.981Z,5.90
2018-03-27T04:32:35.342Z,6.04
2018-03-27T04:35:03.341Z,5.99
2018-03-27T04:37:30.725Z,5.93
2018-03-27T04:40:02.545Z,5.99
2018-03-27T04:42:30.669Z,6.10
2018-03-27T04:44:58.126Z,5.89
2018-03-27T04:47:25.276Z,6.20
2018-03-27T04:49:55.910Z,5.91
2018-03-27T04:52:23.236Z,6.25
2018-03-27T04:54:50.618Z,6.08
2018-03-27T04:57:17.814Z,6.19
2018-03-27T04:59:48.978Z,6.20
2018-03-27T05:02:16.230Z,6.13
2018-03-27T05:04:43.607Z,6.04
2018-03-27T05:07:10.924Z,6.06
2018-03-27T05:09:40.046Z,6.14
2018-03-27T05:12:07.469Z,6.00
2018-03-27T05:14:34.730Z,6.10
2018-03-27T05:17:02.219Z,6.23
2018-03-27T05:19:29.375Z,6.35
2018-03-27T05:21:56.738Z,6.03
2018-03-27T05:24:24.050Z,6.27
2018-03-27T05:26:51.449Z,6.15
2018-03-27T05:29:24.407Z,6.39
2018-03-27T05:31:51.666Z,6.28
2018-03-27T05:34:19.016Z,6.38
2018-03-27T05:36:46.294Z,6.54
2018-03-27T05:39:20.090Z,6.51
2018-03-27T05:41:47.492Z,6.23
2018-03-27T05:44:14.820Z,6.17
2018-03-27T05:46:42.696Z,6.19
2018-03-27T05:49:11.254Z,6.23
2018-03-27T05:51:38.623Z,6.47
2018-03-27T05:54:05.990Z,6.58
2018-03-27T05:56:33.410Z,6.59
2018-03-27T05:59:07.133Z,6.63
2018-03-27T06:01:34.452Z,7.04
2018-03-27T06:04:02.530Z,6.94
2018-03-27T06:06:30.641Z,6.84
2018-03-27T06:09:03.614Z,6.93
2018-03-27T06:11:31.098Z,6.89
2018-03-27T06:13:58.785Z,7.05
2018-03-27T06:16:26.296Z,6.76
2018-03-27T06:18:56.707Z,6.95
2018-03-27T06:21:24.729Z,7.10
2018-03-27T06:23:52.094Z,7.16
2018-03-27T06:26:19.338Z,7.16
2018-03-27T06:28:50.948Z,7.37
2018-03-27T06:31:18.414Z,7.16
2018-03-27T06:33:45.827Z,7.32
2018-03-27T06:36:13.054Z,7.63
2018-03-27T06:38:41.652Z,7.09
2018-03-27T06:41:09.085Z,7.42
2018-03-27T06:43:36.509Z,7.32
2018-03-27T06:46:03.698Z,7.38
2018-03-27T06:48:31.186Z,7.50
2018-03-27T06:50:58.477Z,7.54
2018-03-27T06:53:25.809Z,8.07
2018-03-27T06:55:53.200Z,7.60
2018-03-27T06:58:25.373Z,7.88
2018-03-27T07:00:52.693Z,7.99
2018-03-27T07:03:20.879Z,7.63
2018-03-27T07:05:48.220Z,8.01
2018-03-27T07:08:21.353Z,7.74
2018-03-27T07:10:48.759Z,7.83
2018-03-27T07:13:15.969Z,8.13
2018-03-27T07:15:43.459Z,8.55
2018-03-27T07:18:11.865Z,8.55
2018-03-27T07:20:39.122Z,8.49
2018-03-27T07:23:06.496Z,8.37
2018-03-27T07:25:33.837Z,8.47
2018-03-27T07:28:08.312Z,8.56
2018-03-27T07:30:35.602Z,8.48
2018-03-27T07:33:02.850Z,8.90
2018-03-27T07:35:31.046Z,8.59
2018-03-27T07:37:59.437Z,8.63
2018-03-27T07:40:26.784Z,8.64
2018-03-27T07:42:54.157Z,8.75
2018-03-27T07:45:21.543Z,9.13
2018-03-27T07:47:52.948Z,8.33
2018-03-27T07:50:20.313Z,8.66
2018-03-27T07:52:47.898Z,8.43
2018-03-27T07:55:15.242Z,8.39
2018-03-27T07:57:42.629Z,8.02
2018-03-27T08:00:09.974Z,8.05
2018-03-27T08:02:37.450Z,8.64
2018-03-27T08:05:04.768Z,8.09
2018-03-27T08:07:32.242Z,8.51
2018-03-27T08:09:59.601Z,8.02
2018-03-27T08:12:27.766Z,8.47
2018-03-27T08:14:55.290Z,8.97
2018-03-27T08:17:23.948Z,8.88
2018-03-27T08:19:52.617Z,8.36
2018-03-27T08:22:19.921Z,9.05
2018-03-27T08:24:47.167Z,8.36
2018-03-27T08:27:14.618Z,8.96
2018-03-27T08:29:41.949Z,8.52
2018-03-27T08:32:09.274Z,8.89
2018-03-27T08:34:36.727Z,8.54
2018-03-27T08:37:04.005Z,8.23
2018-03-27T08:39:32.658Z,8.43
2018-03-27T08:42:00.307Z,8.21
2018-03-27T08:44:27.697Z,8.65
2018-03-27T08:46:55.247Z,8.63
2018-03-27T08:49:22.781Z,8.71
2018-03-27T08:51:50.234Z,9.48
2018-03-27T08:54:17.683Z,8.40
2018-03-27T08:56:45.074Z,8.85
2018-03-27T08:59:13.569Z,8.61
2018-03-27T09:01:40.970Z,8.73
2018-03-27T09:04:08.218Z,9.44
2018-03-27T09:06:35.451Z,9.32
2018-03-27T09:09:03.786Z,9.02
2018-03-27T09:11:31.291Z,9.40
2018-03-27T09:13:58.718Z,9.53
2018-03-27T09:16:25.995Z,9.12
2018-03-27T09:18:54.430Z,9.46
2018-03-27T09:21:21.877Z,8.98
2018-03-27T09:23:49.759Z,9.30
2018-03-27T09:26:17.078Z,9.90
2018-03-27T09:28:47.830Z,10.12
2018-03-27T09:31:15.994Z,9.98
2018-03-27T09:33:43.121Z,9.37
2018-03-27T09:36:10.491Z,9.94
2018-03-27T09:38:38.037Z,9.86
2018-03-27T09:41:05.513Z,9.22
2018-03-27T09:43:32.913Z,9.08
2018-03-27T09:46:01.454Z,9.67
2018-03-27T09:48:29.046Z,9.45
2018-03-27T09:50:56.346Z,9.45
2018-03-27T09:53:24.002Z,9.82
2018-03-27T09:55:51.498Z,9.90
2018-03-27T09:58:18.937Z,10.06
2018-03-27T10:00:50.058Z,9.83
2018-03-27T10:03:17.421Z,9.13
2018-03-27T10:05:44.854Z,9.87
2018-03-27T10:08:15.772Z,9.49
2018-03-27T10:10:43.141Z,10.28
2018-03-27T10:13:10.362Z,9.50
2018-03-27T10:15:37.731Z,10.19
2018-03-27T10:18:15.214Z,10.22
2018-03-27T10:20:43.477Z,10.10
2018-03-27T10:23:10.613Z,11.13
2018-03-27T10:25:37.971Z,11.38
2018-03-27T10:28:09.613Z,11.72
2018-03-27T10:30:37.056Z,11.43
2018-03-27T10:33:04.429Z,11.52
2018-03-27T10:35:31.845Z,11.11
2018-03-27T10:37:59.299Z,10.79
2018-03-27T10:40:26.554Z,10.14
2018-03-27T10:42:54.053Z,9.88
2018-03-27T10:45:21.401Z,9.87
2018-03-27T10:47:48.658Z,10.08
2018-03-27T10:50:15.951Z,10.03
2018-03-27T10:52:43.846Z,10.56
2018-03-27T10:55:11.157Z,9.95
2018-03-27T10:57:44.776Z,10.18
2018-03-27T11:00:12.021Z,10.01
2018-03-27T11:02:39.494Z,10.18
2018-03-27T11:05:06.909Z,10.33
2018-03-27T11:07:34.319Z,9.86
2018-03-27T11:10:01.644Z,9.90
2018-03-27T11:12:28.957Z,9.66
2018-03-27T11:14:56.164Z,9.88
2018-03-27T11:17:26.971Z,10.79
2018-03-27T11:19:54.147Z,10.80
2018-03-27T11:22:21.366Z,10.41
2018-03-27T11:24:48.849Z,10.31
2018-03-27T11:27:17.651Z,10.27
2018-03-27T11:29:45.554Z,10.25
2018-03-27T11:32:13.170Z,10.13
2018-03-27T11:34:40.594Z,10.16
2018-03-27T11:37:07.963Z,10.37
2018-03-27T11:39:35.318Z,10.14
2018-03-27T11:42:02.709Z,10.19
2018-03-27T11:44:30.171Z,10.11
2018-03-27T11:46:57.934Z,9.71
2018-03-27T11:49:29.800Z,9.55
2018-03-27T11:51:57.111Z,9.78
2018-03-27T11:54:24.522Z,9.93
2018-03-27T11:56:51.612Z,10.06
2018-03-27T11:59:19.114Z,9.84
2018-03-27T12:01:46.398Z,9.93
2018-03-27T12:04:14.091Z,10.21
2018-03-27T12:06:41.544Z,10.00
2018-03-27T12:09:08.905Z,9.85
2018-03-27T12:11:36.320Z,9.96
2018-03-27T12:14:04.139Z,10.03
2018-03-27T12:16:31.538Z,9.93
2018-03-27T12:19:02.613Z,9.93
2018-03-27T12:21:30.268Z,10.10
2018-03-27T12:23:58.708Z,10.05
2018-03-27T12:26:26.515Z,9.86
2018-03-27T12:28:58.858Z,9.89
2018-03-27T12:31:26.179Z,10.05
2018-03-27T12:33:54.274Z,9.73
2018-03-27T12:36:22.050Z,9.60
2018-03-27T12:38:52.915Z,9.72
2018-03-27T12:41:20.174Z,9.46
2018-03-27T12:43:47.331Z,9.51
2018-03-27T12:46:14.431Z,9.70
2018-03-27T12:48:43.766Z,9.65
2018-03-27T12:51:10.994Z,10.01
2018-03-27T12:53:38.305Z,10.13
2018-03-27T12:56:05.485Z,10.10
2018-03-27T12:58:32.921Z,10.15
2018-03-27T13:01:00.262Z,10.27
2018-03-27T13:03:27.521Z,10.15
2018-03-27T13:05:56.695Z,10.21
2018-03-27T13:08:27.695Z,10.49
2018-03-27T13:10:54.972Z,10.33
2018-03-27T13:13:22.574Z,9.99
2018-03-27T13:15:49.943Z,10.14
2018-03-27T13:18:22.008Z,10.02
2018-03-27T13:20:49.886Z,9.89
2018-03-27T13:23:17.084Z,9.95
2018-03-27T13:25:44.631Z,9.80
2018-03-27T13:28:11.782Z,9.98
2018-03-27T13:30:38.958Z,9.96
2018-03-27T13:33:06.413Z,9.60
2018-03-27T13:35:33.602Z,9.51
2018-03-27T13:38:04.647Z,9.79
2018-03-27T13:40:31.877Z,9.57
2018-03-27T13:42:59.150Z,9.53
2018-03-27T13:45:26.478Z,9.62
2018-03-27T13:47:53.770Z,9.65
2018-03-27T13:50:24.022Z,9.75
2018-03-27T13:52:51.347Z,9.72
2018-03-27T13:55:18.681Z,9.45
2018-03-27T13:57:51.769Z,9.32
2018-03-27T14:00:18.954Z,9.63
2018-03-27T14:02:46.078Z,9.24
2018-03-27T14:05:13.373Z,9.14
2018-03-27T14:07:44.597Z,9.23
2018-03-27T14:10:11.779Z,9.28
2018-03-27T14:12:39.153Z,9.24
2018-03-27T14:15:06.370Z,9.56
2018-03-27T14:17:34.614Z,9.65
2018-03-27T14:20:01.837Z,9.32
2018-03-27T14:22:29.173Z,9.13
2018-03-27T14:24:56.453Z,9.48
2018-03-27T14:27:23.841Z,9.47
2018-03-27T14:29:51.125Z,9.11
2018-03-27T14:32:18.306Z,8.99
2018-03-27T14:34:45.739Z,9.15
2018-03-27T14:37:13.829Z,9.09
2018-03-27T14:39:41.430Z,9.08
2018-03-27T14:42:08.615Z,8.81
2018-03-27T14:44:35.732Z,8.99
2018-03-27T14:47:03.750Z,8.94
2018-03-27T14:49:30.864Z,9.15
2018-03-27T14:51:58.093Z,8.97
2018-03-27T14:54:25.452Z,9.25
2018-03-27T14:56:56.362Z,9.23
2018-03-27T14:59:23.741Z,9.34
2018-03-27T15:01:50.882Z,9.16
2018-03-27T15:04:18.916Z,9.06
2018-03-27T15:06:51.899Z,9.03
2018-03-27T15:09:19.214Z,8.92
2018-03-27T15:11:46.610Z,9.21
2018-03-27T15:14:13.902Z,9.24
2018-03-27T15:16:44.454Z,9.46
2018-03-27T15:19:11.850Z,9.37
2018-03-27T15:21:39.121Z,9.57
2018-03-27T15:24:06.580Z,9.55
2018-03-27T15:26:34.439Z,9.27
2018-03-27T15:29:02.604Z,9.20
2018-03-27T15:31:29.946Z,9.19
2018-03-27T15:33:57.216Z,9.56
2018-03-27T15:36:25.342Z,9.76
2018-03-27T15:38:52.493Z,9.50
2018-03-27T15:41:19.874Z,9.38
2018-03-27T15:43:47.834Z,9.72
2018-03-27T15:46:15.828Z,9.43
2018-03-27T15:48:55.933Z,9.36
2018-03-27T15:51:23.210Z,9.37
2018-03-27T15:53:50.473Z,9.50
2018-03-27T15:56:17.662Z,9.64
2018-03-27T15:58:48.566Z,9.55
2018-03-27T16:01:16.110Z,9.70
2018-03-27T16:03:43.573Z,9.52
2018-03-27T16:06:10.806Z,9.40
2018-03-27T16:08:48.688Z,9.22
2018-03-27T16:11:15.934Z,9.17
2018-03-27T16:13:43.206Z,9.61
2018-03-27T16:16:11.182Z,9.41
2018-03-27T16:18:43.348Z,9.53
2018-03-27T16:21:10.623Z,9.46
2018-03-27T16:23:37.867Z,9.46
2018-03-27T16:26:06.132Z,9.12
2018-03-27T16:28:33.490Z,9.11
2018-03-27T16:31:00.729Z,8.89
2018-03-27T16:33:28.821Z,9.09
2018-03-27T16:35:56.234Z,9.15
2018-03-27T16:38:27.578Z,9.05
2018-03-27T16:40:55.358Z,9.04
2018-03-27T16:43:22.707Z,9.07
2018-03-27T16:45:50.013Z,9.21
2018-03-27T16:48:21.705Z,9.01
2018-03-27T16:50:48.882Z,8.92
2018-03-27T16:53:17.205Z,9.01
2018-03-27T16:55:44.465Z,9.10
2018-03-27T16:58:13.578Z,9.28
2018-03-27T17:00:42.485Z,9.22
2018-03-27T17:03:09.702Z,9.28
2018-03-27T17:05:36.846Z,8.79
2018-03-27T17:08:08.610Z,8.92
2018-03-27T17:10:36.019Z,8.84
2018-03-27T17:13:03.253Z,8.74
2018-03-27T17:15:31.499Z,9.14
2018-03-27T17:18:03.225Z,9.49
2018-03-27T17:20:30.505Z,9.38
2018-03-27T17:22:58.047Z,9.36
2018-03-27T17:25:25.838Z,9.26
2018-03-27T17:27:56.812Z,9.16
2018-03-27T17:30:24.471Z,8.95
2018-03-27T17:32:51.744Z,8.96
2018-03-27T17:35:18.947Z,9.45
2018-03-27T17:37:48.329Z,9.34
2018-03-27T17:40:15.479Z,8.95
2018-03-27T17:42:42.831Z,8.84
2018-03-27T17:45:10.868Z,8.78
2018-03-27T17:47:43.055Z,9.14
2018-03-27T17:50:10.586Z,9.02
2018-03-27T17:52:37.915Z,8.74
2018-03-27T17:55:06.778Z,8.95
2018-03-27T17:57:34.145Z,8.89
2018-03-27T18:00:01.413Z,8.91
2018-03-27T18:02:28.646Z,8.70
2018-03-27T18:04:56.096Z,8.60
2018-03-27T18:07:23.248Z,8.78
2018-03-27T18:09:50.454Z,8.52
2018-03-27T18:12:17.730Z,8.42
2018-03-27T18:14:47.370Z,8.33
2018-03-27T18:17:18.919Z,8.48
2018-03-27T18:19:46.186Z,8.34
2018-03-27T18:22:13.503Z,8.68
2018-03-27T18:24:40.967Z,8.70
2018-03-27T18:27:08.431Z,8.95
2018-03-27T18:29:35.802Z,8.96
2018-03-27T18:32:02.839Z,8.82
2018-03-27T18:34:29.950Z,8.71
2018-03-27T18:36:58.206Z,8.34
2018-03-27T18:39:27.354Z,8.30
2018-03-27T18:41:55.521Z,8.19
2018-03-27T18:44:22.531Z,8.72
2018-03-27T18:46:49.806Z,8.96
2018-03-27T18:49:17.124Z,8.88
2018-03-27T18:51:44.399Z,8.72
2018-03-27T18:54:11.621Z,8.45
2018-03-27T18:56:42.745Z,8.26
2018-03-27T18:59:10.833Z,8.13
2018-03-27T19:01:38.053Z,8.16
2018-03-27T19:04:05.268Z,8.52
2018-03-27T19:06:32.687Z,8.15
2018-03-27T19:09:00.067Z,8.27
2018-03-27T19:11:28.368Z,8.18
2018-03-27T19:13:56.110Z,8.16
2018-03-27T19:16:23.441Z,8.08
2018-03-27T19:18:50.690Z,8.30
2018-03-27T19:21:17.862Z,8.21
2018-03-27T19:23:45.229Z,8.38
2018-03-27T19:26:12.598Z,8.76
2018-03-27T19:28:41.174Z,8.28
2018-03-27T19:31:09.274Z,8.15
2018-03-27T19:33:36.743Z,8.08
2018-03-27T19:36:04.144Z,8.06
2018-03-27T19:38:31.373Z,8.12
2018-03-27T19:40:59.295Z,7.93
2018-03-27T19:43:26.592Z,8.07
2018-03-27T19:45:54.214Z,8.52
2018-03-27T19:48:21.426Z,8.05
2018-03-27T19:50:48.542Z,7.96
2018-03-27T19:53:15.773Z,7.98
2018-03-27T19:55:43.068Z,7.86
2018-03-27T19:58:11.377Z,8.06
2018-03-27T20:00:38.569Z,7.97
2018-03-27T20:03:05.742Z,8.05
2018-03-27T20:05:33.082Z,8.56
2018-03-27T20:08:04.340Z,8.46
2018-03-27T20:10:31.658Z,8.49
2018-03-27T20:12:58.982Z,8.01
2018-03-27T20:15:26.241Z,8.11
2018-03-27T20:17:54.387Z,8.28
2018-03-27T20:20:22.283Z,8.06
2018-03-27T20:22:49.517Z,8.08
2018-03-27T20:25:17.310Z,8.31
2018-03-27T20:27:44.566Z,8.31
2018-03-27T20:30:11.602Z,7.93
2018-03-27T20:32:38.831Z,7.83
2018-03-27T20:35:07.501Z,7.80
2018-03-27T20:37:35.977Z,7.78
2018-03-27T20:40:04.012Z,7.81
2018-03-27T20:42:31.222Z,7.75
2018-03-27T20:44:58.507Z,8.29
2018-03-27T20:47:25.822Z,8.35
2018-03-27T20:49:53.183Z,8.01
2018-03-27T20:52:20.309Z,7.74
2018-03-27T20:54:47.918Z,7.75
2018-03-27T20:57:29.172Z,7.73
2018-03-27T20:59:56.510Z,7.51
2018-03-27T21:02:23.729Z,7.72
2018-03-27T21:04:50.922Z,7.95
2018-03-27T21:07:21.614Z,8.29
2018-03-27T21:09:48.822Z,7.60
2018-03-27T21:12:16.034Z,7.63
2018-03-27T21:14:43.283Z,7.58
2018-03-27T21:17:14.986Z,7.50
2018-03-27T21:19:42.113Z,7.30
2018-03-27T21:22:09.306Z,7.38
2018-03-27T21:24:38.421Z,7.57
2018-03-27T21:27:08.790Z,7.71
2018-03-27T21:29:35.902Z,7.61
2018-03-27T21:32:03.585Z,7.48
2018-03-27T21:34:30.801Z,7.48
2018-03-27T21:37:01.842Z,7.38
2018-03-27T21:39:30.030Z,7.19
2018-03-27T21:41:57.094Z,7.19
2018-03-27T21:44:24.318Z,7.23
2018-03-27T21:46:54.829Z,7.32
2018-03-27T21:49:21.973Z,7.41
2018-03-27T21:51:49.292Z,7.58
2018-03-27T21:54:16.610Z,7.55
2018-03-27T21:56:47.053Z,7.49
2018-03-27T21:59:14.091Z,7.62
2018-03-27T22:01:41.042Z,7.53
2018-03-27T22:04:08.456Z,7.68
2018-03-27T22:06:35.794Z,7.72
2018-03-27T22:09:02.958Z,7.58
2018-03-27T22:11:30.155Z,7.33
2018-03-27T22:13:57.438Z,7.76
2018-03-27T22:16:29.861Z,7.94
2018-03-27T22:18:56.952Z,7.81
2018-03-27T22:21:24.105Z,7.93
2018-03-27T22:23:51.419Z,7.89
2018-03-27T22:26:24.966Z,7.91
2018-03-27T22:28:52.165Z,8.04
2018-03-27T22:31:19.346Z,7.85
2018-03-27T22:33:46.453Z,7.98
2018-03-27T22:36:19.534Z,7.05
2018-03-27T22:38:46.813Z,7.23
2018-03-27T22:41:14.058Z,7.34
2018-03-27T22:43:41.370Z,7.00
2018-03-27T22:46:11.545Z,6.89
2018-03-27T22:48:38.736Z,7.08
2018-03-27T22:51:06.018Z,7.04
2018-03-27T22:53:33.842Z,6.84
2018-03-27T22:56:01.433Z,6.97
2018-03-27T22:58:29.473Z,7.05
2018-03-27T23:00:56.712Z,6.91
2018-03-27T23:03:23.804Z,7.04
2018-03-27T23:06:01.372Z,6.75
2018-03-27T23:08:29.278Z,6.89
2018-03-27T23:11:01.494Z,7.05
2018-03-27T23:13:28.698Z,6.66
2018-03-27T23:16:00.137Z,6.62
2018-03-27T23:18:27.384Z,6.83
2018-03-27T23:20:54.589Z,6.76
2018-03-27T23:23:21.798Z,6.59
2018-03-27T23:25:53.497Z,6.55
2018-03-27T23:28:21.377Z,6.57
2018-03-27T23:30:48.606Z,6.69
2018-03-27T23:33:15.950Z,6.66
2018-03-27T23:35:46.296Z,6.62
2018-03-27T23:38:16.197Z,6.87
2018-03-27T23:40:43.502Z,6.94
2018-03-27T23:43:10.711Z,6.49
2018-03-27T23:45:41.611Z,6.54
2018-03-27T23:48:09.045Z,6.48
2018-03-27T23:50:36.193Z,6.89
2018-03-27T23:53:03.330Z,6.93
2018-03-27T23:55:36.226Z,6.62
2018-03-27T23:58:03.345Z,6.92
